createdAt,value
2022-11-25T00:02:32.430Z,6.8
2022-11-25T00:12:34.386Z,6.9
2022-11-25T00:22:36.951Z,7
2022-11-25T00:32:39.558Z,7.3
2022-11-25T00:42:41.444Z,7.5
2022-11-25T00:52:43.367Z,7.6
2022-11-25T01:02:46.101Z,7.8
2022-11-25T01:12:48.522Z,7.9
2022-11-25T01:22:50.387Z,8.1
2022-11-25T01:32:52.185Z,8.2
2022-11-25T01:42:54.320Z,8.4
2022-11-25T01:52:56.654Z,8.5
2022-11-25T02:02:58.586Z,8.5
2022-11-25T02:13:00.814Z,8.7
2022-11-25T02:23:03.652Z,8.6
2022-11-25T02:33:05.604Z,8.5
2022-11-25T02:43:07.954Z,8.5
2022-11-25T02:53:10.008Z,8.4
2022-11-25T03:03:12.220Z,8.5
2022-11-25T03:13:14.095Z,8.5
2022-11-25T03:23:15.896Z,8.6
2022-11-25T03:33:18.517Z,8.6
2022-11-25T03:43:20.309Z,8.4
2022-11-25T03:53:22.083Z,8.3
2022-11-25T04:03:24.003Z,8.1
2022-11-25T04:13:26.003Z,8.1
2022-11-25T04:23:28.429Z,8.1
2022-11-25T04:33:30.168Z,8
2022-11-25T04:43:32.480Z,7.8
2022-11-25T04:53:34.217Z,7.7
2022-11-25T05:03:36.649Z,7.7
2022-11-25T05:13:38.580Z,7.9
2022-11-25T05:23:41.028Z,8.2
2022-11-25T05:43:45.692Z,8.2
2022-11-25T05:53:47.512Z,8.1
2022-11-25T06:03:50.146Z,8.1
2022-11-25T06:13:52.050Z,8
2022-11-25T06:23:54.515Z,8
2022-11-25T06:33:57.007Z,8.1
2022-11-25T06:43:59.405Z,8
2022-11-25T06:54:01.637Z,7.9
2022-11-25T07:04:03.672Z,8
2022-11-25T07:14:06.188Z,7.9
2022-11-25T07:24:08.342Z,8
2022-11-25T07:34:10.380Z,7.9
2022-11-25T07:44:12.153Z,7.9
2022-11-25T07:54:13.846Z,7.9
2022-11-25T08:04:19.982Z,7.8
2022-11-25T08:14:18.700Z,7.9
2022-11-25T08:24:20.490Z,7.9
2022-11-25T08:34:22.320Z,7.9
2022-11-25T08:44:24.716Z,8.1
2022-11-25T08:54:26.749Z,8.3
2022-11-25T09:04:28.473Z,8.5
2022-11-25T09:14:30.785Z,8.8
2022-11-25T09:24:32.895Z,9.2
2022-11-25T09:34:35.461Z,10.4
2022-11-25T09:44:37.053Z,11.2
2022-11-25T09:54:39.333Z,11.2
2022-11-25T10:04:41.689Z,10.7
2022-11-25T10:24:46.319Z,11.6
2022-11-25T10:34:48.495Z,11.2
2022-11-25T10:44:50.616Z,11.4
2022-11-25T10:54:53.125Z,10.9
2022-11-25T11:04:54.846Z,11.1
2022-11-25T11:24:59.537Z,11.3
2022-11-25T11:35:01.986Z,11.4
2022-11-25T11:45:04.359Z,11.3
2022-11-25T11:55:06.905Z,11.7
2022-11-25T12:15:11.891Z,12.4
2022-11-25T12:25:14.135Z,12.7
2022-11-25T12:35:16.575Z,12.8
2022-11-25T12:45:18.344Z,12.2
2022-11-25T12:55:20.997Z,12
2022-11-25T13:05:39.383Z,11.4
2022-11-25T13:15:25.041Z,11.2
2022-11-25T13:25:26.821Z,11
2022-11-25T13:35:28.580Z,10.9
2022-11-25T13:45:31.046Z,10.9
2022-11-25T13:55:33.031Z,10.8
2022-11-25T14:05:34.956Z,10.8
2022-11-25T14:15:36.883Z,10.7
2022-11-25T14:25:39.562Z,10.7
2022-11-25T14:35:45.241Z,10.6
2022-11-25T14:45:43.744Z,10.6
2022-11-25T14:55:46.276Z,10.5
2022-11-25T15:05:48.225Z,10.5
2022-11-25T15:15:49.999Z,10.4
2022-11-25T15:25:51.755Z,10.3
2022-11-25T15:35:54.021Z,10.2
2022-11-25T15:45:56.526Z,10.2
2022-11-25T15:47:23.877Z,10.2
2022-11-25T15:56:07.654Z,10
2022-11-25T16:06:09.552Z,9.8
2022-11-25T16:36:16.347Z,9.6
2022-11-25T16:46:18.856Z,9.6
2022-11-25T17:16:25.229Z,9.6
2022-11-25T17:36:30.007Z,9.6
2022-11-25T17:46:31.928Z,9.6
2022-11-25T17:56:34.369Z,9.5
2022-11-25T18:06:37.057Z,9.5
2022-11-25T18:16:39.186Z,9.4
2022-11-25T18:26:41.724Z,9.4
2022-11-25T18:36:43.493Z,9.3
2022-11-25T18:46:46.052Z,9.2
2022-11-25T18:56:47.982Z,9.2
2022-11-25T19:06:50.086Z,9.1
2022-11-25T19:16:52.458Z,9.1
2022-11-25T19:26:54.905Z,9.1
2022-11-25T20:17:06.843Z,8.9
2022-11-25T20:37:10.902Z,8.5
2022-11-25T20:47:13.588Z,8.4
2022-11-25T21:17:20.658Z,8
2022-11-25T21:27:23.136Z,7.9
2022-11-25T21:37:25.326Z,7.8
2022-11-25T21:47:27.963Z,7.6
2022-11-25T21:57:30.571Z,7.4
2022-11-25T22:07:32.364Z,7.2
2022-11-25T22:17:34.394Z,7
2022-11-25T22:27:36.926Z,6.8
2022-11-25T22:37:39.163Z,6.7
2022-11-25T22:47:41.733Z,6.6
2022-11-25T23:07:46.427Z,6.4
2022-11-25T23:27:50.887Z,6.1
2022-11-25T23:47:54.869Z,6
